createdAt,value
2022-11-12T00:00:13.940Z,96.98
2022-11-12T00:01:13.939Z,97.08
2022-11-12T00:02:13.980Z,97.08
2022-11-12T00:03:13.922Z,97.08
2022-11-12T00:04:13.911Z,97.08
2022-11-12T00:05:13.935Z,96.88
2022-11-12T00:06:13.882Z,96.88
2022-11-12T00:07:14.624Z,96.88
2022-11-12T00:08:13.867Z,96.98
2022-11-12T00:09:13.845Z,96.88
2022-11-12T00:10:13.944Z,96.98
2022-11-12T00:11:13.855Z,96.88
2022-11-12T00:12:13.824Z,96.92
2022-11-12T00:13:13.811Z,96.82
2022-11-12T00:14:13.816Z,96.72
2022-11-12T00:15:13.792Z,96.61
2022-11-12T00:16:13.781Z,96.61
2022-11-12T00:17:13.818Z,96.61
2022-11-12T00:18:13.813Z,96.51
2022-11-12T00:19:13.752Z,96.51
2022-11-12T00:20:13.779Z,96.51
2022-11-12T00:21:13.716Z,96.51
2022-11-12T00:22:13.733Z,96.61
2022-11-12T00:23:13.728Z,96.72
2022-11-12T00:24:13.685Z,96.72
2022-11-12T00:25:13.707Z,96.82
2022-11-12T00:26:13.654Z,96.92
2022-11-12T00:27:13.656Z,97.02
2022-11-12T00:28:13.645Z,97.13
2022-11-12T00:29:13.627Z,97.17
2022-11-12T00:30:13.638Z,97.17
2022-11-12T00:31:13.638Z,97.28
2022-11-12T00:32:13.614Z,97.28
2022-11-12T00:33:13.590Z,97.38
2022-11-12T00:34:13.598Z,97.38
2022-11-12T00:35:14.244Z,97.38
2022-11-12T00:36:13.575Z,97.49
2022-11-12T00:37:13.569Z,97.38
2022-11-12T00:38:13.537Z,97.38
2022-11-12T00:39:13.504Z,97.38
2022-11-12T00:40:13.500Z,97.28
2022-11-12T00:41:13.518Z,97.28
2022-11-12T00:42:13.500Z,97.17
2022-11-12T00:43:13.465Z,97.38
2022-11-12T00:44:13.468Z,97.49
2022-11-12T00:45:13.454Z,97.49
2022-11-12T00:46:13.490Z,97.49
2022-11-12T00:47:13.420Z,97.49
2022-11-12T00:48:13.437Z,97.49
2022-11-12T00:49:13.409Z,97.38
2022-11-12T00:50:13.449Z,97.28
2022-11-12T00:51:13.386Z,97.17
2022-11-12T00:52:13.434Z,97.22
2022-11-12T00:53:13.696Z,97.32
2022-11-12T00:54:13.360Z,97.42
2022-11-12T00:55:13.351Z,97.42
2022-11-12T00:56:13.323Z,97.42
2022-11-12T00:57:13.313Z,97.53
2022-11-12T00:58:13.321Z,97.53
2022-11-12T00:59:13.281Z,97.53
2022-11-12T01:00:13.351Z,97.53
2022-11-12T01:01:13.349Z,97.53
2022-11-12T01:02:13.272Z,97.53
2022-11-12T01:03:13.282Z,97.63
2022-11-12T01:04:13.262Z,97.74
2022-11-12T01:05:13.254Z,97.84
2022-11-12T01:06:13.225Z,97.84
2022-11-12T01:07:13.237Z,97.94
2022-11-12T01:08:13.204Z,97.84
2022-11-12T01:09:13.195Z,97.84
2022-11-12T01:10:13.191Z,97.74
2022-11-12T01:11:13.155Z,97.74
2022-11-12T01:12:13.154Z,97.74
2022-11-12T01:13:13.171Z,97.74
2022-11-12T01:14:13.120Z,97.84
2022-11-12T01:15:13.114Z,97.94
2022-11-12T01:16:13.147Z,97.94
2022-11-12T01:17:13.102Z,97.84
2022-11-12T01:18:13.087Z,97.84
2022-11-12T01:19:13.076Z,97.84
2022-11-12T01:20:13.059Z,97.74
2022-11-12T01:21:13.047Z,97.84
2022-11-12T01:22:13.067Z,98.05
2022-11-12T01:23:13.030Z,98.05
2022-11-12T01:24:13.017Z,97.94
2022-11-12T01:25:13.018Z,97.84
2022-11-12T01:26:13.034Z,97.84
2022-11-12T01:27:12.980Z,97.84
2022-11-12T01:28:12.968Z,97.84
2022-11-12T01:29:12.950Z,97.94
2022-11-12T01:30:12.988Z,97.94
2022-11-12T01:31:12.952Z,97.94
2022-11-12T01:32:12.950Z,97.94
2022-11-12T01:33:12.909Z,97.99
2022-11-12T01:34:12.917Z,97.99
2022-11-12T01:35:12.895Z,97.99
2022-11-12T01:36:12.912Z,97.99
2022-11-12T01:37:12.892Z,97.99
2022-11-12T01:38:12.876Z,97.99
2022-11-12T01:39:12.868Z,98.09
2022-11-12T01:40:12.871Z,98.09
2022-11-12T01:41:12.842Z,98.25
2022-11-12T01:42:12.821Z,98.15
2022-11-12T01:43:12.790Z,98.05
2022-11-12T01:44:12.796Z,97.94
2022-11-12T01:45:12.771Z,97.74
2022-11-12T01:46:12.792Z,97.67
2022-11-12T01:47:12.757Z,97.57
2022-11-12T01:48:12.744Z,97.57
2022-11-12T01:49:12.734Z,97.47
2022-11-12T01:50:13.149Z,97.47
2022-11-12T01:51:12.703Z,97.57
2022-11-12T01:52:12.702Z,97.67
2022-11-12T01:53:12.707Z,97.78
2022-11-12T01:54:12.692Z,97.84
2022-11-12T01:55:12.662Z,97.74
2022-11-12T01:56:12.687Z,97.53
2022-11-12T01:57:12.633Z,97.42
2022-11-12T01:58:12.632Z,97.26
2022-11-12T01:59:12.622Z,97.26
2022-11-12T02:00:12.625Z,97.26
2022-11-12T02:01:12.636Z,97.16
2022-11-12T02:02:12.592Z,97.16
2022-11-12T02:03:12.558Z,97.16
2022-11-12T02:04:13.539Z,97.16
2022-11-12T02:05:12.564Z,97.16
2022-11-12T02:06:12.534Z,97.26
2022-11-12T02:07:12.572Z,97.26
2022-11-12T02:08:12.543Z,97.41
2022-11-12T02:09:12.505Z,97.41
2022-11-12T02:10:12.514Z,97.52
2022-11-12T02:11:12.506Z,97.62
2022-11-12T02:12:12.464Z,97.62
2022-11-12T02:13:12.455Z,97.72
2022-11-12T02:14:12.445Z,97.72
2022-11-12T02:15:12.455Z,97.83
2022-11-12T02:16:12.417Z,97.83
2022-11-12T02:17:12.428Z,97.93
2022-11-12T02:18:12.396Z,97.93
2022-11-12T02:19:12.396Z,97.83
2022-11-12T02:20:12.399Z,97.83
2022-11-12T02:21:12.389Z,97.83
2022-11-12T02:22:12.357Z,97.83
2022-11-12T02:23:12.357Z,97.83
2022-11-12T02:24:12.326Z,97.93
2022-11-12T02:25:12.545Z,97.93
2022-11-12T02:26:12.307Z,97.93
2022-11-12T02:27:12.298Z,97.93
2022-11-12T02:28:12.278Z,97.93
2022-11-12T02:29:12.268Z,97.83
2022-11-12T02:30:12.300Z,97.83
2022-11-12T02:31:12.280Z,97.83
2022-11-12T02:32:12.244Z,97.83
2022-11-12T02:33:12.271Z,97.72
2022-11-12T02:34:12.228Z,97.83
2022-11-12T02:35:12.208Z,97.87
2022-11-12T02:36:12.214Z,97.87
2022-11-12T02:37:12.189Z,97.87
2022-11-12T02:38:12.219Z,97.97
2022-11-12T02:39:12.173Z,97.97
2022-11-12T02:40:12.184Z,97.97
2022-11-12T02:41:12.141Z,97.97
2022-11-12T02:42:12.149Z,98.08
2022-11-12T02:43:12.135Z,98.08
2022-11-12T02:44:12.163Z,98.08
2022-11-12T02:45:12.118Z,98.18
2022-11-12T02:46:12.104Z,98.28
2022-11-12T02:47:12.103Z,98.49
2022-11-12T02:48:16.461Z,98.49
2022-11-12T02:49:13.088Z,98.44
2022-11-12T02:50:12.022Z,98.34
2022-11-12T02:51:12.072Z,98.24
2022-11-12T02:52:12.066Z,98.03
2022-11-12T02:53:11.996Z,97.83
2022-11-12T02:54:11.994Z,97.77
2022-11-12T02:55:12.015Z,97.56
2022-11-12T02:56:11.972Z,97.56
2022-11-12T02:57:11.963Z,97.56
2022-11-12T02:58:11.943Z,97.66
2022-11-12T02:59:11.938Z,97.66
2022-11-12T03:00:11.938Z,97.77
2022-11-12T03:01:11.992Z,97.87
2022-11-12T03:02:11.903Z,97.97
2022-11-12T03:03:11.885Z,97.97
2022-11-12T03:04:11.876Z,97.97
2022-11-12T03:05:11.865Z,97.97
2022-11-12T03:06:11.878Z,97.97
2022-11-12T03:07:11.903Z,97.93
2022-11-12T03:08:11.843Z,98.03
2022-11-12T03:09:11.824Z,97.93
2022-11-12T03:10:11.818Z,97.72
2022-11-12T03:11:11.804Z,97.62
2022-11-12T03:12:11.797Z,97.52
2022-11-12T03:13:11.795Z,97.56
2022-11-12T03:14:11.787Z,97.45
2022-11-12T03:15:12.695Z,97.35
2022-11-12T03:16:11.752Z,97.35
2022-11-12T03:17:11.771Z,97.35
2022-11-12T03:18:11.729Z,97.35
2022-11-12T03:19:11.711Z,97.35
2022-11-12T03:20:12.642Z,97.45
2022-11-12T03:21:11.684Z,97.45
2022-11-12T03:22:11.688Z,97.45
2022-11-12T03:23:11.686Z,97.45
2022-11-12T03:24:11.688Z,97.45
2022-11-12T03:25:11.637Z,97.56
2022-11-12T03:26:11.643Z,97.66
2022-11-12T03:27:11.619Z,97.77
2022-11-12T03:28:11.611Z,97.77
2022-11-12T03:29:11.628Z,97.87
2022-11-12T03:30:11.589Z,97.87
2022-11-12T03:31:11.577Z,97.97
2022-11-12T03:32:11.580Z,97.97
2022-11-12T03:33:11.566Z,98.08
2022-11-12T03:34:11.546Z,97.97
2022-11-12T03:35:11.561Z,97.91
2022-11-12T03:36:11.520Z,97.91
2022-11-12T03:37:11.502Z,97.81
2022-11-12T03:38:11.506Z,97.91
2022-11-12T03:39:11.505Z,97.91
2022-11-12T03:40:11.514Z,97.91
2022-11-12T03:41:11.456Z,97.91
2022-11-12T03:42:11.460Z,98.02
2022-11-12T03:43:11.450Z,98.02
2022-11-12T03:44:11.429Z,98.12
2022-11-12T03:45:11.412Z,98.12
2022-11-12T03:46:11.438Z,98.22
2022-11-12T03:47:11.407Z,98.33
2022-11-12T03:48:11.388Z,98.33
2022-11-12T03:49:11.373Z,98.33
2022-11-12T03:50:11.401Z,98.33
2022-11-12T03:51:11.369Z,98.43
2022-11-12T03:52:11.334Z,98.54
2022-11-12T03:53:11.318Z,98.54
2022-11-12T03:54:11.344Z,98.54
2022-11-12T03:55:11.339Z,98.43
2022-11-12T03:56:11.291Z,98.43
2022-11-12T03:57:11.296Z,98.43
2022-11-12T03:58:11.278Z,98.43
2022-11-12T03:59:11.315Z,98.54
2022-11-12T04:00:11.259Z,98.54
2022-11-12T04:01:11.293Z,98.54
2022-11-12T04:02:12.181Z,98.64
2022-11-12T04:03:11.222Z,98.64
2022-11-12T04:04:11.200Z,98.64
2022-11-12T04:05:11.229Z,98.64
2022-11-12T04:06:11.191Z,98.54
2022-11-12T04:07:11.255Z,98.54
2022-11-12T04:08:11.148Z,98.54
2022-11-12T04:09:11.150Z,98.58
2022-11-12T04:10:11.166Z,98.58
2022-11-12T04:11:11.131Z,98.48
2022-11-12T04:12:11.129Z,98.48
2022-11-12T04:13:11.151Z,98.48
2022-11-12T04:14:11.099Z,98.58
2022-11-12T04:15:11.083Z,98.69
2022-11-12T04:16:11.068Z,98.58
2022-11-12T04:17:12.036Z,98.48
2022-11-12T04:18:11.040Z,98.48
2022-11-12T04:19:11.102Z,98.48
2022-11-12T04:20:11.023Z,98.58
2022-11-12T04:21:11.014Z,98.58
2022-11-12T04:22:10.998Z,98.58
2022-11-12T04:23:10.991Z,98.58
2022-11-12T04:24:10.981Z,98.48
2022-11-12T04:25:10.994Z,98.48
2022-11-12T04:26:10.972Z,98.48
2022-11-12T04:27:10.961Z,98.48
2022-11-12T04:28:10.931Z,98.48
2022-11-12T04:29:10.933Z,98.38
2022-11-12T04:30:10.954Z,98.38
2022-11-12T04:31:10.901Z,98.38
2022-11-12T04:32:10.922Z,98.38
2022-11-12T04:33:10.876Z,98.48
2022-11-12T04:34:10.874Z,98.38
2022-11-12T04:35:10.932Z,98.42
2022-11-12T04:36:10.852Z,98.52
2022-11-12T04:37:10.863Z,98.63
2022-11-12T04:38:10.850Z,98.63
2022-11-12T04:39:10.833Z,98.63
2022-11-12T04:40:10.817Z,98.63
2022-11-12T04:41:10.844Z,98.58
2022-11-12T04:42:10.807Z,98.63
2022-11-12T04:43:10.799Z,98.63
2022-11-12T04:44:10.756Z,98.58
2022-11-12T04:45:10.750Z,98.58
2022-11-12T04:46:10.760Z,98.58
2022-11-12T04:47:10.736Z,98.63
2022-11-12T04:48:10.714Z,98.63
2022-11-12T04:49:10.715Z,98.63
2022-11-12T04:50:10.694Z,98.63
2022-11-12T04:51:10.717Z,98.73
2022-11-12T04:52:10.715Z,98.79
2022-11-12T04:53:10.669Z,98.90
2022-11-12T04:54:10.645Z,98.79
2022-11-12T04:55:10.650Z,98.79
2022-11-12T04:56:10.637Z,98.69
2022-11-12T04:57:10.625Z,98.73
2022-11-12T04:58:10.658Z,98.73
2022-11-12T04:59:10.603Z,98.52
2022-11-12T05:00:11.536Z,98.52
2022-11-12T05:01:10.679Z,98.52
2022-11-12T05:02:10.558Z,98.52
2022-11-12T05:03:10.559Z,98.42
2022-11-12T05:04:10.550Z,98.42
2022-11-12T05:05:10.529Z,98.42
2022-11-12T05:06:10.536Z,98.52
2022-11-12T05:07:10.551Z,98.52
2022-11-12T05:08:10.513Z,98.63
2022-11-12T05:09:10.488Z,98.63
2022-11-12T05:10:10.515Z,98.63
2022-11-12T05:11:12.941Z,98.63
2022-11-12T05:12:10.503Z,98.63
2022-11-12T05:13:10.652Z,98.63
2022-11-12T05:14:10.436Z,98.78
2022-11-12T05:15:10.433Z,98.78
2022-11-12T05:16:10.419Z,98.78
2022-11-12T05:17:10.419Z,98.78
2022-11-12T05:18:10.419Z,98.78
2022-11-12T05:19:10.382Z,98.88
2022-11-12T05:20:10.388Z,98.88
2022-11-12T05:21:10.371Z,98.88
2022-11-12T05:22:21.876Z,98.88
2022-11-12T05:23:11.320Z,98.99
2022-11-12T05:24:22.403Z,99.19
2022-11-12T05:25:11.313Z,99.25
2022-11-12T05:26:10.290Z,99.15
2022-11-12T05:27:10.296Z,99.04
2022-11-12T05:28:10.294Z,98.94
2022-11-12T05:29:10.314Z,98.73
2022-11-12T05:30:10.252Z,98.63
2022-11-12T05:31:10.260Z,98.63
2022-11-12T05:32:10.238Z,98.57
2022-11-12T05:33:10.223Z,98.57
2022-11-12T05:34:10.210Z,98.57
2022-11-12T05:35:10.239Z,98.57
2022-11-12T05:36:10.182Z,98.47
2022-11-12T05:37:10.189Z,98.47
2022-11-12T05:38:11.644Z,98.57
2022-11-12T05:39:10.212Z,98.68
2022-11-12T05:40:10.144Z,98.68
2022-11-12T05:41:10.162Z,98.68
2022-11-12T05:42:14.261Z,98.68
2022-11-12T05:43:10.118Z,98.68
2022-11-12T05:44:10.859Z,98.68
2022-11-12T05:45:10.087Z,98.68
2022-11-12T05:46:10.087Z,98.68
2022-11-12T05:47:10.109Z,98.68
2022-11-12T05:48:10.097Z,98.78
2022-11-12T05:49:10.083Z,98.78
2022-11-12T05:50:10.057Z,98.78
2022-11-12T05:51:14.178Z,98.78
2022-11-12T05:52:10.103Z,98.78
2022-11-12T05:53:10.036Z,98.78
2022-11-12T05:54:09.997Z,98.78
2022-11-12T05:55:10.822Z,98.88
2022-11-12T05:56:09.986Z,98.88
2022-11-12T05:57:09.966Z,98.99
2022-11-12T05:58:09.957Z,98.88
2022-11-12T05:59:09.984Z,98.78
2022-11-12T06:00:09.962Z,98.68
2022-11-12T06:01:09.935Z,98.68
2022-11-12T06:02:10.003Z,98.57
2022-11-12T06:03:09.921Z,98.57
2022-11-12T06:04:09.877Z,98.57
2022-11-12T06:05:09.919Z,98.57
2022-11-12T06:06:09.857Z,98.61
2022-11-12T06:07:09.916Z,98.57
2022-11-12T06:08:09.840Z,98.61
2022-11-12T06:09:09.826Z,98.72
2022-11-12T06:10:09.808Z,98.78
2022-11-12T06:11:09.865Z,98.88
2022-11-12T06:12:09.829Z,98.88
2022-11-12T06:13:09.795Z,98.88
2022-11-12T06:14:09.768Z,98.78
2022-11-12T06:15:09.780Z,98.68
2022-11-12T06:16:09.783Z,98.68
2022-11-12T06:17:09.794Z,98.57
2022-11-12T06:18:09.731Z,98.47
2022-11-12T06:19:09.725Z,98.47
2022-11-12T06:20:09.707Z,98.51
2022-11-12T06:21:09.692Z,98.51
2022-11-12T06:22:09.686Z,98.51
2022-11-12T06:23:16.890Z,98.61
2022-11-12T06:24:09.691Z,98.61
2022-11-12T06:25:09.643Z,98.72
2022-11-12T06:26:09.639Z,98.68
2022-11-12T06:27:09.633Z,98.57
2022-11-12T06:28:09.693Z,98.61
2022-11-12T06:29:09.620Z,98.47
2022-11-12T06:30:10.414Z,98.57
2022-11-12T06:31:09.603Z,98.47
2022-11-12T06:32:09.574Z,98.47
2022-11-12T06:33:09.648Z,98.47
2022-11-12T06:34:09.548Z,98.41
2022-11-12T06:35:09.565Z,98.47
2022-11-12T06:36:09.537Z,98.41
2022-11-12T06:37:09.525Z,98.41
2022-11-12T06:38:09.544Z,98.47
2022-11-12T06:39:09.517Z,98.41
2022-11-12T06:40:10.944Z,98.41
2022-11-12T06:41:10.430Z,98.41
2022-11-12T06:42:09.458Z,98.41
2022-11-12T06:43:09.455Z,98.61
2022-11-12T06:44:09.493Z,98.61
2022-11-12T06:45:09.426Z,98.61
2022-11-12T06:46:09.415Z,98.61
2022-11-12T06:47:09.416Z,98.61
2022-11-12T06:48:09.403Z,98.61
2022-11-12T06:49:09.385Z,98.72
2022-11-12T06:50:09.406Z,98.72
2022-11-12T06:51:09.374Z,98.82
2022-11-12T06:52:13.704Z,98.88
2022-11-12T06:53:10.358Z,98.88
2022-11-12T06:54:09.405Z,98.88
2022-11-12T06:55:09.321Z,98.88
2022-11-12T06:56:09.307Z,98.88
2022-11-12T06:57:09.316Z,98.88
2022-11-12T06:58:09.284Z,98.88
2022-11-12T06:59:09.276Z,98.99
2022-11-12T07:00:10.211Z,98.99
2022-11-12T07:01:11.948Z,98.99
2022-11-12T07:02:09.311Z,98.99
2022-11-12T07:03:09.249Z,98.99
2022-11-12T07:04:09.285Z,99.09
2022-11-12T07:05:09.201Z,99.09
2022-11-12T07:06:09.210Z,99.09
2022-11-12T07:07:10.761Z,99.09
2022-11-12T07:08:09.203Z,99.30
2022-11-12T07:09:09.199Z,99.40
2022-11-12T07:10:09.161Z,99.40
2022-11-12T07:11:09.131Z,99.25
2022-11-12T07:12:09.141Z,99.25
2022-11-12T07:13:09.149Z,99.25
2022-11-12T07:14:09.188Z,99.15
2022-11-12T07:15:10.109Z,99.04
2022-11-12T07:16:09.104Z,98.94
2022-11-12T07:17:09.105Z,98.73
2022-11-12T07:18:09.238Z,98.63
2022-11-12T07:19:09.058Z,98.52
2022-11-12T07:20:09.058Z,98.52
2022-11-12T07:21:09.062Z,98.52
2022-11-12T07:22:09.025Z,98.52
2022-11-12T07:23:09.003Z,98.52
2022-11-12T07:24:09.022Z,98.63
2022-11-12T07:25:09.323Z,98.63
2022-11-12T07:26:08.965Z,98.63
2022-11-12T07:27:09.006Z,98.73
2022-11-12T07:28:08.987Z,98.83
2022-11-12T07:29:08.964Z,98.83
2022-11-12T07:30:08.950Z,98.94
2022-11-12T07:31:08.918Z,98.94
2022-11-12T07:32:08.902Z,98.94
2022-11-12T07:33:08.911Z,99.04
2022-11-12T07:34:08.927Z,99.10
2022-11-12T07:35:08.891Z,99.21
2022-11-12T07:36:08.884Z,99.21
2022-11-12T07:37:08.863Z,99.31
2022-11-12T07:38:08.850Z,99.31
2022-11-12T07:39:08.875Z,99.41
2022-11-12T07:40:09.243Z,99.37
2022-11-12T07:41:08.809Z,99.47
2022-11-12T07:42:08.816Z,99.47
2022-11-12T07:43:08.793Z,99.47
2022-11-12T07:44:08.776Z,99.57
2022-11-12T07:45:08.778Z,99.57
2022-11-12T07:46:10.860Z,99.63
2022-11-12T07:47:08.781Z,99.63
2022-11-12T07:48:08.726Z,99.73
2022-11-12T07:49:08.727Z,99.73
2022-11-12T07:50:08.717Z,99.73
2022-11-12T07:51:08.711Z,99.84
2022-11-12T07:52:08.676Z,99.79
2022-11-12T07:53:08.731Z,99.79
2022-11-12T07:54:08.670Z,99.79
2022-11-12T07:55:08.701Z,99.79
2022-11-12T07:56:08.647Z,99.79
2022-11-12T07:57:08.629Z,99.79
2022-11-12T07:58:08.626Z,99.74
2022-11-12T07:59:08.620Z,99.74
2022-11-12T08:00:08.797Z,99.85
2022-11-12T08:01:08.626Z,99.74
2022-11-12T08:02:08.625Z,99.74
2022-11-12T08:03:08.599Z,99.74
2022-11-12T08:04:08.552Z,99.64
2022-11-12T08:05:14.501Z,99.64
2022-11-12T08:06:09.552Z,99.60
2022-11-12T08:07:08.750Z,99.60
2022-11-12T08:08:08.567Z,99.60
2022-11-12T08:09:08.529Z,99.60
2022-11-12T08:10:08.491Z,99.70
2022-11-12T08:11:08.485Z,99.70
2022-11-12T08:12:08.461Z,99.65
2022-11-12T08:13:08.492Z,99.65
2022-11-12T08:14:08.452Z,99.65
2022-11-12T08:15:08.431Z,99.65
2022-11-12T08:16:08.903Z,99.76
2022-11-12T08:17:08.403Z,99.71
2022-11-12T08:18:08.422Z,99.71
2022-11-12T08:19:08.386Z,99.71
2022-11-12T08:20:08.411Z,99.71
2022-11-12T08:21:08.364Z,99.56
2022-11-12T08:22:08.344Z,99.56
2022-11-12T08:23:08.344Z,99.46
2022-11-12T08:24:09.279Z,99.46
2022-11-12T08:25:08.318Z,99.46
2022-11-12T08:26:08.334Z,99.35
2022-11-12T08:27:08.285Z,99.21
2022-11-12T08:28:08.294Z,99.21
2022-11-12T08:29:09.038Z,99.10
2022-11-12T08:30:08.264Z,99.10
2022-11-12T08:31:08.268Z,99.10
2022-11-12T08:32:08.240Z,98.96
2022-11-12T08:33:08.340Z,98.85
2022-11-12T08:34:08.324Z,98.75
2022-11-12T08:35:08.248Z,98.65
2022-11-12T08:36:08.255Z,98.54
2022-11-12T08:37:08.187Z,98.39
2022-11-12T08:38:08.181Z,98.19
2022-11-12T08:39:09.666Z,98.08
2022-11-12T08:40:08.188Z,97.88
2022-11-12T08:41:08.584Z,97.73
2022-11-12T08:42:08.149Z,97.52
2022-11-12T08:43:08.113Z,97.31
2022-11-12T08:44:08.920Z,97.11
2022-11-12T08:45:08.119Z,96.86
2022-11-12T08:46:08.129Z,96.45
2022-11-12T08:47:08.067Z,96.14
2022-11-12T08:48:08.078Z,95.83
2022-11-12T08:49:08.047Z,95.58
2022-11-12T08:50:08.043Z,95.27
2022-11-12T08:51:08.041Z,95.06
2022-11-12T08:52:08.033Z,94.76
2022-11-12T08:53:08.023Z,94.51
2022-11-12T08:54:07.992Z,94.09
2022-11-12T08:55:07.990Z,93.88
2022-11-12T08:56:08.045Z,93.64
2022-11-12T08:57:07.972Z,93.33
2022-11-12T08:58:07.953Z,92.92
2022-11-12T08:59:07.980Z,92.46
2022-11-12T09:00:07.987Z,92.25
2022-11-12T09:01:07.926Z,91.95
2022-11-12T09:02:07.926Z,91.60
2022-11-12T09:03:07.886Z,91.08
2022-11-12T09:04:07.881Z,90.78
2022-11-12T09:05:07.886Z,90.32
2022-11-12T09:06:07.887Z,90.12
2022-11-12T09:07:09.719Z,89.66
2022-11-12T09:08:07.877Z,89.36
2022-11-12T09:09:07.822Z,89.25
2022-11-12T09:10:07.850Z,89.01
2022-11-12T09:11:07.813Z,88.70
2022-11-12T09:12:15.045Z,88.59
2022-11-12T09:13:08.816Z,88.39
2022-11-12T09:14:07.808Z,88.49
2022-11-12T09:15:36.124Z,88.24
2022-11-12T09:16:08.753Z,88.04
2022-11-12T09:17:07.779Z,87.94
2022-11-12T09:18:07.729Z,87.73
2022-11-12T09:19:07.737Z,87.28
2022-11-12T09:20:07.707Z,86.87
2022-11-12T09:21:07.706Z,86.46
2022-11-12T09:22:07.676Z,85.95
2022-11-12T09:23:07.668Z,85.91
2022-11-12T09:24:10.500Z,85.50
2022-11-12T09:25:07.687Z,85.09
2022-11-12T09:26:07.642Z,84.88
2022-11-12T09:27:07.617Z,84.74
2022-11-12T09:28:07.616Z,84.64
2022-11-12T09:29:07.619Z,84.64
2022-11-12T09:30:07.612Z,84.64
2022-11-12T09:31:07.597Z,84.44
2022-11-12T09:32:07.608Z,83.88
2022-11-12T09:33:07.548Z,82.86
2022-11-12T09:34:07.568Z,82.35
2022-11-12T09:35:07.565Z,82.31
2022-11-12T09:36:07.529Z,82.10
2022-11-12T09:39:19.600Z,81.65
2022-11-12T09:40:19.480Z,81.65
2022-11-12T09:41:19.478Z,80.94
2022-11-12T09:42:19.487Z,80.83
2022-11-12T09:43:19.438Z,81.04
2022-11-12T09:44:19.961Z,80.39
2022-11-12T09:45:19.414Z,80.08
2022-11-12T09:46:27.707Z,79.88
2022-11-12T09:53:13.538Z,78.82
2022-11-12T09:54:12.458Z,78.17
2022-11-12T09:55:12.439Z,77.97
2022-11-12T09:56:12.455Z,78.27
2022-11-12T09:57:13.345Z,78.38
2022-11-12T09:58:12.453Z,78.27
2022-11-12T09:59:12.397Z,78.44
2022-11-12T10:00:12.386Z,78.54
2022-11-12T10:01:12.486Z,78.44
2022-11-12T10:02:12.427Z,78.23
2022-11-12T10:03:12.353Z,78.13
2022-11-12T10:04:12.372Z,77.93
2022-11-12T10:05:12.336Z,77.38
2022-11-12T10:06:14.651Z,77.28
2022-11-12T10:07:13.369Z,77.28
2022-11-12T10:08:12.291Z,76.36
2022-11-12T10:09:12.297Z,76.46
2022-11-12T10:10:12.321Z,76.73
2022-11-12T10:11:13.712Z,76.02
2022-11-12T10:12:12.506Z,75.51
2022-11-12T10:13:12.267Z,75.10
2022-11-12T10:14:13.183Z,74.90
2022-11-12T10:15:13.665Z,73.64
2022-11-12T10:16:12.253Z,73.33
2022-11-12T10:17:12.862Z,73.54
2022-11-12T10:18:13.666Z,73.43
2022-11-12T10:19:12.185Z,72.41
2022-11-12T10:20:12.461Z,72.11
2022-11-12T10:21:12.626Z,71.77
2022-11-12T10:22:12.181Z,71.87
2022-11-12T10:23:12.140Z,71.77
2022-11-12T10:24:12.217Z,71.67
2022-11-12T10:25:12.129Z,71.67
2022-11-12T10:26:12.455Z,71.87
2022-11-12T10:27:12.097Z,71.94
2022-11-12T10:28:12.078Z,71.23
2022-11-12T10:29:13.063Z,71.23
2022-11-12T10:30:12.050Z,71.23
2022-11-12T10:31:12.703Z,70.82
2022-11-12T10:32:12.029Z,70.92
2022-11-12T10:33:12.043Z,70.10
2022-11-12T10:34:12.016Z,70.41
2022-11-12T10:35:12.938Z,70.41
2022-11-12T10:36:12.031Z,70.48
2022-11-12T10:37:11.998Z,70.68
2022-11-12T10:38:11.969Z,70.68
2022-11-12T10:39:12.808Z,70.78
2022-11-12T10:40:12.891Z,70.48
2022-11-12T10:41:11.927Z,70.58
2022-11-12T10:42:11.945Z,70.58
2022-11-12T10:43:11.910Z,70.68
2022-11-12T10:44:13.344Z,70.68
2022-11-12T10:45:12.722Z,70.78
2022-11-12T10:46:11.900Z,70.58
2022-11-12T10:47:11.874Z,70.38
2022-11-12T10:48:11.871Z,70.34
2022-11-12T10:49:12.789Z,70.24
2022-11-12T10:50:11.828Z,70.24
2022-11-12T10:51:11.841Z,70.55
2022-11-12T10:52:11.826Z,70.75
2022-11-12T10:53:11.786Z,70.55
2022-11-12T10:54:11.775Z,70.55
2022-11-12T10:55:11.798Z,70.75
2022-11-12T10:56:11.798Z,71.02
2022-11-12T10:57:11.775Z,71.12
2022-11-12T10:58:11.736Z,71.23
2022-11-12T10:59:11.774Z,70.72
2022-11-12T11:00:11.718Z,70.10
2022-11-12T11:01:11.746Z,70.01
2022-11-12T11:02:11.770Z,70.10
2022-11-12T11:03:11.718Z,69.57
2022-11-12T11:04:11.657Z,69.36
2022-11-12T11:05:11.673Z,69.67
2022-11-12T11:06:11.654Z,69.87
2022-11-12T11:07:11.648Z,69.97
2022-11-12T11:08:11.620Z,69.67
2022-11-12T11:09:11.837Z,69.57
2022-11-12T11:10:11.629Z,69.97
2022-11-12T11:11:11.590Z,70.07
2022-11-12T11:12:11.770Z,70.28
2022-11-12T11:13:11.748Z,70.07
2022-11-12T11:14:11.549Z,69.87
2022-11-12T11:15:11.539Z,69.67
2022-11-12T11:16:11.557Z,69.23
2022-11-12T11:17:11.510Z,69.13
2022-11-12T11:18:11.550Z,69.13
2022-11-12T11:19:11.520Z,69.43
2022-11-12T11:20:11.479Z,69.23
2022-11-12T11:21:11.463Z,69.23
2022-11-12T11:22:11.458Z,69.33
2022-11-12T11:23:11.473Z,68.92
2022-11-12T11:24:19.140Z,69.02
2022-11-12T11:25:11.437Z,68.99
2022-11-12T11:26:11.434Z,69.30
2022-11-12T11:27:11.406Z,69.50
2022-11-12T11:28:11.421Z,69.81
2022-11-12T11:29:11.392Z,69.50
2022-11-12T11:30:11.398Z,69.09
2022-11-12T11:31:11.405Z,68.99
2022-11-12T11:32:11.347Z,68.69
2022-11-12T11:33:15.228Z,68.55
2022-11-12T11:34:11.321Z,69.06
2022-11-12T11:35:11.315Z,69.26
2022-11-12T11:36:11.313Z,69.37
2022-11-12T11:37:11.486Z,68.66
2022-11-12T11:38:11.284Z,68.55
2022-11-12T11:39:11.267Z,68.25
2022-11-12T11:40:11.297Z,68.25
2022-11-12T11:41:11.256Z,68.22
2022-11-12T11:42:11.244Z,67.91
2022-11-12T11:43:11.237Z,68.12
2022-11-12T11:44:13.986Z,67.91
2022-11-12T11:45:11.210Z,67.81
2022-11-12T11:46:11.230Z,68.01
2022-11-12T11:47:11.189Z,68.22
2022-11-12T11:48:11.517Z,68.32
2022-11-12T11:49:11.181Z,68.01
2022-11-12T11:50:11.142Z,67.47
2022-11-12T11:51:11.170Z,67.17
2022-11-12T11:52:11.108Z,67.38
2022-11-12T11:53:11.111Z,67.47
2022-11-12T11:54:11.137Z,67.17
2022-11-12T11:55:11.096Z,66.97
2022-11-12T11:56:11.082Z,66.66
2022-11-12T11:57:11.090Z,66.77
2022-11-12T11:58:11.063Z,66.94
2022-11-12T11:59:11.050Z,67.24
2022-11-12T12:00:11.047Z,67.03
2022-11-12T12:01:11.022Z,66.83
2022-11-12T12:02:11.062Z,66.83
2022-11-12T12:03:11.089Z,66.91
2022-11-12T12:04:11.030Z,66.50
2022-11-12T12:05:10.984Z,66.60
2022-11-12T12:06:10.965Z,66.50
2022-11-12T12:07:11.008Z,66.16
2022-11-12T12:08:10.958Z,66.06
2022-11-12T12:09:10.953Z,65.45
2022-11-12T12:10:10.915Z,65.45
2022-11-12T12:11:10.919Z,65.36
2022-11-12T12:12:10.905Z,65.15
2022-11-12T12:13:10.935Z,64.92
2022-11-12T12:14:10.945Z,64.82
2022-11-12T12:15:10.857Z,64.61
2022-11-12T12:16:10.845Z,64.31
2022-11-12T12:17:11.822Z,63.98
2022-11-12T12:18:11.272Z,63.98
2022-11-12T12:19:10.837Z,63.98
2022-11-12T12:20:10.875Z,64.28
2022-11-12T12:21:10.795Z,64.28
2022-11-12T12:22:10.789Z,64.38
2022-11-12T12:23:10.796Z,64.58
2022-11-12T12:24:10.780Z,64.58
2022-11-12T12:25:10.783Z,64.38
2022-11-12T12:26:10.729Z,64.58
2022-11-12T12:27:10.720Z,64.58
2022-11-12T12:28:10.717Z,64.69
2022-11-12T12:29:10.719Z,64.58
2022-11-12T12:30:10.747Z,63.87
2022-11-12T12:31:10.709Z,63.95
2022-11-12T12:32:10.704Z,63.64
2022-11-12T12:33:10.683Z,63.92
2022-11-12T12:34:10.665Z,63.61
2022-11-12T12:35:10.651Z,63.51
2022-11-12T12:36:10.628Z,63.61
2022-11-12T12:37:10.653Z,62.98
2022-11-12T12:38:10.618Z,62.77
2022-11-12T12:39:10.597Z,62.67
2022-11-12T12:40:10.845Z,62.37
2022-11-12T12:41:10.590Z,62.34
2022-11-12T12:42:10.594Z,62.44
2022-11-12T12:43:10.601Z,62.64
2022-11-12T12:44:10.526Z,62.44
2022-11-12T12:45:10.536Z,62.14
2022-11-12T12:46:10.526Z,61.91
2022-11-12T12:47:10.547Z,61.30
2022-11-12T12:48:10.494Z,61.10
2022-11-12T12:49:10.505Z,61.20
2022-11-12T12:50:10.553Z,61.71
2022-11-12T12:51:10.471Z,61.17
2022-11-12T12:52:10.447Z,60.77
2022-11-12T12:53:10.465Z,60.36
2022-11-12T12:54:10.425Z,60.46
2022-11-12T12:55:10.435Z,60.03
2022-11-12T12:56:10.408Z,60.13
2022-11-12T12:57:10.405Z,60.13
2022-11-12T12:58:10.499Z,59.93
2022-11-12T12:59:10.406Z,60.51
2022-11-12T13:00:15.381Z,60.41